createdAt,value
2023-01-19T00:01:35.411Z,11.42
2023-01-19T00:04:05.786Z,11.41
2023-01-19T00:06:35.852Z,11.40
2023-01-19T00:09:06.449Z,11.15
2023-01-19T00:11:39.295Z,11.24
2023-01-19T00:14:09.360Z,11.32
2023-01-19T00:16:39.335Z,11.34
2023-01-19T00:19:09.365Z,11.40
2023-01-19T00:21:39.381Z,11.46
2023-01-19T00:24:09.873Z,11.48
2023-01-19T00:26:42.998Z,11.47
2023-01-19T00:29:13.847Z,11.48
2023-01-19T00:31:44.693Z,11.50
2023-01-19T00:34:14.731Z,11.49
2023-01-19T00:36:45.388Z,11.50
2023-01-19T00:39:15.389Z,11.37
2023-01-19T00:42:00.301Z,11.55
2023-01-19T00:44:30.399Z,11.61
2023-01-19T00:47:01.222Z,11.60
2023-01-19T00:49:31.293Z,11.65
2023-01-19T00:52:01.374Z,11.52
2023-01-19T00:54:31.393Z,11.64
2023-01-19T00:57:04.457Z,11.75
2023-01-19T00:59:34.575Z,11.76
2023-01-19T01:02:04.738Z,11.75
2023-01-19T01:04:35.111Z,11.71
2023-01-19T01:07:05.189Z,11.75
2023-01-19T01:09:35.344Z,11.78
2023-01-19T01:12:08.206Z,11.78
2023-01-19T01:14:38.549Z,11.76
2023-01-19T01:17:11.484Z,11.79
2023-01-19T01:19:41.731Z,11.79
2023-01-19T01:22:12.795Z,11.80
2023-01-19T01:24:42.617Z,11.81
2023-01-19T01:27:15.265Z,11.78
2023-01-19T01:29:46.652Z,11.80
2023-01-19T01:32:16.809Z,11.82
2023-01-19T01:34:46.842Z,11.81
2023-01-19T01:37:16.794Z,11.82
2023-01-19T01:39:46.776Z,11.79
2023-01-19T01:42:22.944Z,11.77
2023-01-19T01:44:55.425Z,11.77
2023-01-19T01:47:33.864Z,11.76
2023-01-19T01:50:10.983Z,11.73
2023-01-19T01:53:06.459Z,11.69
2023-01-19T01:55:39.908Z,11.67
2023-01-19T01:58:14.368Z,11.64
2023-01-19T02:00:56.822Z,11.60
2023-01-19T02:03:28.476Z,11.45
2023-01-19T02:06:03.215Z,11.58
2023-01-19T02:08:50.764Z,11.61
2023-01-19T02:11:33.208Z,11.54
2023-01-19T02:14:07.451Z,11.62
2023-01-19T02:16:37.946Z,11.61
2023-01-19T02:19:10.348Z,11.60
2023-01-19T02:21:49.556Z,11.63
2023-01-19T02:24:22.724Z,11.60
2023-01-19T02:26:54.134Z,11.62
2023-01-19T02:29:26.631Z,11.63
2023-01-19T02:31:57.536Z,11.68
2023-01-19T02:34:27.588Z,11.73
2023-01-19T02:36:59.529Z,11.70
2023-01-19T02:39:37.478Z,11.76
2023-01-19T02:42:12.748Z,11.73
2023-01-19T02:44:46.418Z,11.73
2023-01-19T02:47:17.013Z,11.66
2023-01-19T02:49:47.651Z,11.69
2023-01-19T02:52:20.696Z,11.67
2023-01-19T02:55:05.855Z,11.65
2023-01-19T02:57:50.790Z,11.68
2023-01-19T03:00:33.762Z,11.63
2023-01-19T03:03:21.215Z,11.69
2023-01-19T03:06:07.603Z,11.63
2023-01-19T03:08:47.984Z,11.66
2023-01-19T03:11:20.744Z,11.66
2023-01-19T03:13:55.521Z,11.64
2023-01-19T03:16:33.103Z,11.48
2023-01-19T03:19:09.448Z,11.62
2023-01-19T03:21:42.961Z,11.62
2023-01-19T03:24:15.601Z,11.64
2023-01-19T03:26:52.301Z,11.65
2023-01-19T03:29:25.468Z,11.67
2023-01-19T03:31:56.959Z,11.66
2023-01-19T03:34:28.655Z,11.67
2023-01-19T03:37:02.820Z,11.66
2023-01-19T03:39:33.300Z,11.69
2023-01-19T03:42:11.377Z,11.70
2023-01-19T03:44:44.190Z,11.68
2023-01-19T03:47:16.382Z,11.72
2023-01-19T03:49:49.157Z,11.73
2023-01-19T03:52:19.426Z,11.73
2023-01-19T03:54:49.800Z,11.68
2023-01-19T03:57:22.461Z,11.69
2023-01-19T03:59:53.563Z,11.64
2023-01-19T04:02:23.306Z,11.64
2023-01-19T04:04:53.608Z,11.54
2023-01-19T04:07:23.566Z,11.56
2023-01-19T04:09:53.645Z,11.52
2023-01-19T04:12:26.268Z,11.52
2023-01-19T04:14:56.339Z,11.48
2023-01-19T04:17:26.373Z,11.47
2023-01-19T04:19:56.477Z,11.46
2023-01-19T04:22:26.539Z,11.47
2023-01-19T04:24:56.620Z,11.50
2023-01-19T04:27:29.275Z,11.50
2023-01-19T04:30:00.496Z,11.51
2023-01-19T04:32:30.806Z,11.51
2023-01-19T04:35:01.035Z,11.49
2023-01-19T04:37:31.141Z,11.41
2023-01-19T04:40:01.190Z,11.41
2023-01-19T04:42:33.847Z,11.44
2023-01-19T04:45:04.054Z,11.43
2023-01-19T04:47:34.047Z,11.39
2023-01-19T04:50:05.855Z,11.35
2023-01-19T04:52:37.467Z,11.31
2023-01-19T04:55:08.922Z,11.42
2023-01-19T04:57:41.553Z,11.40
2023-01-19T05:00:13.340Z,11.35
2023-01-19T05:02:45.359Z,11.33
2023-01-19T05:05:15.708Z,11.35
2023-01-19T05:07:47.101Z,11.35
2023-01-19T05:10:17.181Z,11.34
2023-01-19T05:12:49.842Z,11.38
2023-01-19T05:15:19.959Z,11.36
2023-01-19T05:17:50.058Z,11.38
2023-01-19T05:20:20.630Z,11.22
2023-01-19T05:22:54.783Z,11.28
2023-01-19T05:25:25.014Z,11.37
2023-01-19T05:27:58.079Z,11.37
2023-01-19T05:30:28.263Z,11.31
2023-01-19T05:32:58.766Z,11.32
2023-01-19T05:35:35.651Z,11.33
2023-01-19T05:38:06.411Z,11.32
2023-01-19T05:40:36.389Z,11.32
2023-01-19T05:43:09.068Z,11.34
2023-01-19T05:45:39.114Z,11.37
2023-01-19T05:48:10.295Z,11.33
2023-01-19T05:50:40.396Z,11.36
2023-01-19T05:53:10.414Z,11.38
2023-01-19T05:55:40.486Z,11.39
2023-01-19T05:58:13.116Z,11.40
2023-01-19T06:00:43.408Z,11.37
2023-01-19T06:03:13.458Z,11.37
2023-01-19T06:05:43.517Z,11.40
2023-01-19T06:08:13.597Z,11.24
2023-01-19T06:10:43.803Z,11.38
2023-01-19T06:13:16.483Z,11.34
2023-01-19T06:15:47.465Z,11.39
2023-01-19T06:18:17.809Z,11.44
2023-01-19T06:20:47.848Z,11.48
2023-01-19T06:23:17.924Z,11.51
2023-01-19T06:25:48.066Z,11.52
2023-01-19T06:28:20.775Z,11.52
2023-01-19T06:30:52.680Z,11.49
2023-01-19T06:33:23.131Z,11.53
2023-01-19T06:35:53.935Z,11.43
2023-01-19T06:38:24.025Z,11.56
2023-01-19T06:40:58.796Z,11.57
2023-01-19T06:43:31.660Z,11.57
2023-01-19T06:46:02.456Z,11.53
2023-01-19T06:48:32.647Z,11.43
2023-01-19T06:51:02.842Z,11.42
2023-01-19T06:53:32.877Z,11.38
2023-01-19T06:56:04.764Z,11.37
2023-01-19T06:58:37.882Z,11.40
2023-01-19T07:01:09.338Z,11.38
2023-01-19T07:03:40.383Z,11.29
2023-01-19T07:06:10.510Z,11.21
2023-01-19T07:08:41.737Z,11.22
2023-01-19T07:11:23.118Z,11.20
2023-01-19T07:14:01.175Z,11.25
2023-01-19T07:16:31.284Z,11.30
2023-01-19T07:19:01.457Z,11.18
2023-01-19T07:21:31.602Z,11.27
2023-01-19T07:24:01.687Z,11.43
2023-01-19T07:26:31.698Z,11.47
2023-01-19T07:29:04.333Z,11.52
2023-01-19T07:31:34.597Z,11.56
2023-01-19T07:34:05.631Z,11.56
2023-01-19T07:36:36.004Z,11.62
2023-01-19T07:39:06.333Z,11.65
2023-01-19T07:41:36.299Z,11.67
2023-01-19T07:44:13.212Z,11.68
2023-01-19T07:46:43.513Z,11.72
2023-01-19T07:49:13.594Z,11.72
2023-01-19T07:51:43.828Z,11.71
2023-01-19T07:54:13.981Z,11.78
2023-01-19T07:56:44.300Z,11.82
2023-01-19T07:59:17.881Z,11.83
2023-01-19T08:01:48.035Z,11.86
2023-01-19T08:04:19.213Z,11.91
2023-01-19T08:06:50.091Z,11.92
2023-01-19T08:09:20.912Z,11.95
2023-01-19T08:11:50.943Z,11.99
2023-01-19T08:14:23.621Z,12.05
2023-01-19T08:16:53.607Z,12.08
2023-01-19T08:19:23.855Z,12.11
2023-01-19T08:21:53.862Z,12.07
2023-01-19T08:24:28.637Z,12.16
2023-01-19T08:27:02.582Z,12.22
2023-01-19T08:29:35.384Z,12.22
2023-01-19T08:32:06.126Z,12.33
2023-01-19T08:34:36.457Z,12.39
2023-01-19T08:37:06.571Z,12.44
2023-01-19T08:39:36.791Z,12.50
2023-01-19T08:42:06.813Z,12.56
2023-01-19T08:44:49.631Z,12.62
2023-01-19T08:47:27.162Z,12.64
2023-01-19T08:49:57.235Z,12.67
2023-01-19T08:52:29.492Z,12.83
2023-01-19T08:55:00.021Z,12.83
2023-01-19T08:57:30.760Z,12.84
2023-01-19T09:00:04.616Z,12.84
2023-01-19T09:02:35.018Z,12.90
2023-01-19T09:05:05.534Z,12.91
2023-01-19T09:07:35.811Z,12.94
2023-01-19T09:10:06.481Z,12.96
2023-01-19T09:12:36.832Z,12.97
2023-01-19T09:15:12.493Z,12.83
2023-01-19T09:17:42.972Z,12.88
2023-01-19T09:20:14.148Z,13.00
2023-01-19T09:22:43.828Z,13.06
2023-01-19T09:25:13.830Z,13.01
2023-01-19T09:27:43.899Z,12.98
2023-01-19T09:30:17.331Z,12.87
2023-01-19T09:32:48.041Z,12.97
2023-01-19T09:35:18.237Z,13.07
2023-01-19T09:37:50.098Z,13.07
2023-01-19T09:40:21.943Z,13.08
2023-01-19T09:42:57.171Z,13.00
2023-01-19T09:45:37.907Z,13.29
2023-01-19T09:48:16.530Z,13.25
2023-01-19T09:50:48.581Z,13.36
2023-01-19T09:53:24.785Z,13.41
2023-01-19T09:55:54.793Z,13.45
2023-01-19T09:58:26.770Z,13.32
2023-01-19T10:01:08.436Z,13.62
2023-01-19T10:03:43.675Z,13.54
2023-01-19T10:06:17.556Z,13.75
2023-01-19T10:08:54.714Z,13.79
2023-01-19T10:11:51.259Z,13.78
2023-01-19T10:14:29.270Z,13.85
2023-01-19T10:17:15.126Z,13.94
2023-01-19T10:19:50.962Z,13.93
2023-01-19T10:22:24.422Z,13.80
2023-01-19T10:24:58.811Z,14.09
2023-01-19T10:27:34.339Z,14.15
2023-01-19T10:30:04.967Z,14.26
2023-01-19T10:32:39.830Z,14.36
2023-01-19T10:35:23.554Z,14.39
2023-01-19T10:37:56.238Z,14.47
2023-01-19T10:40:35.074Z,14.54
2023-01-19T10:43:25.126Z,14.63
2023-01-19T10:45:55.434Z,14.62
2023-01-19T10:48:28.275Z,14.64
2023-01-19T10:51:06.578Z,14.67
2023-01-19T10:53:40.477Z,14.63
2023-01-19T10:56:20.351Z,14.67
2023-01-19T10:58:50.478Z,14.61
2023-01-19T11:01:24.004Z,14.60
2023-01-19T11:04:05.654Z,14.63
2023-01-19T11:06:36.486Z,14.65
2023-01-19T11:09:24.155Z,14.67
2023-01-19T11:11:56.967Z,14.67
2023-01-19T11:14:29.194Z,14.63
2023-01-19T11:17:01.013Z,14.41
2023-01-19T11:19:36.153Z,14.36
2023-01-19T11:22:21.916Z,14.35
2023-01-19T11:24:52.713Z,14.26
2023-01-19T11:27:23.989Z,14.17
2023-01-19T11:30:01.875Z,14.03
2023-01-19T11:32:33.368Z,14.16
2023-01-19T11:35:27.620Z,14.07
2023-01-19T11:38:19.015Z,13.96
2023-01-19T11:40:57.803Z,13.78
2023-01-19T11:43:43.471Z,13.50
2023-01-19T11:46:19.665Z,13.02
2023-01-19T11:48:57.546Z,12.71
2023-01-19T11:51:33.738Z,12.51
2023-01-19T11:54:08.827Z,12.46
2023-01-19T11:56:39.125Z,12.28
2023-01-19T11:59:15.304Z,12.08
2023-01-19T12:01:54.823Z,11.65
2023-01-19T12:04:30.955Z,11.47
2023-01-19T12:07:10.281Z,11.33
2023-01-19T12:09:47.465Z,10.94
2023-01-19T12:12:27.444Z,10.88
2023-01-19T12:15:03.452Z,10.69
2023-01-19T12:17:38.076Z,10.55
2023-01-19T12:20:19.240Z,10.55
2023-01-19T12:22:55.934Z,10.54
2023-01-19T12:25:32.252Z,10.50
2023-01-19T12:28:03.004Z,10.60
2023-01-19T12:30:33.576Z,10.62
2023-01-19T12:33:25.473Z,10.68
2023-01-19T12:36:01.103Z,10.78
2023-01-19T12:38:44.003Z,10.85
2023-01-19T12:41:31.534Z,10.90
2023-01-19T12:44:27.868Z,10.78
2023-01-19T12:47:04.273Z,10.83
2023-01-19T12:49:38.303Z,10.64
2023-01-19T12:52:36.248Z,10.33
2023-01-19T12:55:22.988Z,10.43
2023-01-19T12:57:59.843Z,10.48
2023-01-19T13:00:39.024Z,10.37
2023-01-19T13:03:44.223Z,10.34
2023-01-19T13:06:14.437Z,10.13
2023-01-19T13:09:03.753Z,9.91
2023-01-19T13:11:36.538Z,9.66
2023-01-19T13:14:38.795Z,9.61
2023-01-19T13:17:27.472Z,9.58
2023-01-19T13:20:14.626Z,9.47
2023-01-19T13:23:22.620Z,9.29
2023-01-19T13:25:56.410Z,9.30
2023-01-19T13:28:35.330Z,9.34
2023-01-19T13:31:07.150Z,8.87
2023-01-19T13:33:46.732Z,9.09
2023-01-19T13:36:23.419Z,8.89
2023-01-19T13:38:55.154Z,8.92
2023-01-19T13:41:27.863Z,8.83
2023-01-19T13:44:04.315Z,8.70
2023-01-19T13:46:35.024Z,8.60
2023-01-19T13:49:15.469Z,8.58
2023-01-19T13:51:45.606Z,8.60
2023-01-19T13:54:19.438Z,8.46
2023-01-19T13:56:54.861Z,8.46
2023-01-19T13:59:27.503Z,8.10
2023-01-19T14:01:58.336Z,8.14
2023-01-19T14:04:31.323Z,8.10
2023-01-19T14:07:05.384Z,7.99
2023-01-19T14:09:35.464Z,8.01
2023-01-19T14:12:17.685Z,7.99
2023-01-19T14:14:50.407Z,7.92
2023-01-19T14:17:32.365Z,7.92
2023-01-19T14:20:05.609Z,7.86
2023-01-19T14:22:43.916Z,7.73
2023-01-19T14:25:32.498Z,7.71
2023-01-19T14:28:30.632Z,7.74
2023-01-19T14:31:05.011Z,7.72
2023-01-19T14:33:46.282Z,7.69
2023-01-19T14:36:31.391Z,7.75
2023-01-19T14:39:03.573Z,7.66
2023-01-19T14:41:41.022Z,7.67
2023-01-19T14:44:12.723Z,7.69
2023-01-19T14:46:49.540Z,7.43
2023-01-19T14:49:23.560Z,7.42
2023-01-19T14:51:54.543Z,7.36
2023-01-19T14:54:32.356Z,7.22
2023-01-19T14:57:03.066Z,7.18
2023-01-19T14:59:35.725Z,7.12
2023-01-19T15:02:08.851Z,7.08
2023-01-19T15:04:38.977Z,7.14
2023-01-19T15:07:09.600Z,7.19
2023-01-19T15:09:40.093Z,7.20
2023-01-19T15:12:17.176Z,7.17
2023-01-19T15:14:48.092Z,7.03
2023-01-19T15:17:25.803Z,6.81
2023-01-19T15:19:56.951Z,7.00
2023-01-19T15:22:30.135Z,6.87
2023-01-19T15:25:00.502Z,6.91
2023-01-19T15:27:30.661Z,6.85
2023-01-19T15:30:00.911Z,6.84
2023-01-19T15:32:33.506Z,6.87
2023-01-19T15:35:03.705Z,6.83
2023-01-19T15:37:33.775Z,6.76
2023-01-19T15:40:03.830Z,6.84
2023-01-19T15:42:33.843Z,6.81
2023-01-19T15:45:04.173Z,6.81
2023-01-19T15:47:36.835Z,6.85
2023-01-19T15:50:09.783Z,6.85
2023-01-19T15:52:39.831Z,7.01
2023-01-19T15:55:16.062Z,7.12
2023-01-19T15:57:46.513Z,7.12
2023-01-19T16:00:18.021Z,7.15
2023-01-19T16:02:52.200Z,7.28
2023-01-19T16:05:25.991Z,7.31
2023-01-19T16:08:02.000Z,7.27
2023-01-19T16:10:32.179Z,7.31
2023-01-19T16:13:02.353Z,7.24
2023-01-19T16:15:32.529Z,7.16
2023-01-19T16:18:05.341Z,7.06
2023-01-19T16:20:35.550Z,7.04
2023-01-19T16:23:21.359Z,6.98
2023-01-19T16:25:59.148Z,6.83
2023-01-19T16:28:30.261Z,6.91
2023-01-19T16:31:00.691Z,6.84
2023-01-19T16:33:33.641Z,6.79
2023-01-19T16:36:20.907Z,6.86
2023-01-19T16:38:51.074Z,6.95
2023-01-19T16:41:21.291Z,6.90
2023-01-19T16:43:58.737Z,7.00
2023-01-19T16:46:34.082Z,6.89
2023-01-19T16:49:08.756Z,6.78
2023-01-19T16:51:39.002Z,6.78
2023-01-19T16:54:10.857Z,6.80
2023-01-19T16:56:41.596Z,6.78
2023-01-19T16:59:14.796Z,6.66
2023-01-19T17:01:46.044Z,6.64
2023-01-19T17:04:19.874Z,6.70
2023-01-19T17:06:50.201Z,6.66
2023-01-19T17:09:21.126Z,6.64
2023-01-19T17:11:51.241Z,6.42
2023-01-19T17:14:22.857Z,6.36
2023-01-19T17:16:53.212Z,6.40
2023-01-19T17:19:26.955Z,6.38
2023-01-19T17:21:56.961Z,6.38
2023-01-19T17:24:27.088Z,6.40
2023-01-19T17:26:57.155Z,6.50
2023-01-19T17:29:27.478Z,6.58
2023-01-19T17:31:57.542Z,6.50
2023-01-19T17:34:30.171Z,6.57
2023-01-19T17:37:03.364Z,6.56
2023-01-19T17:39:33.583Z,6.58
2023-01-19T17:42:03.777Z,6.63
2023-01-19T17:44:33.807Z,6.70
2023-01-19T17:47:04.001Z,6.80
2023-01-19T17:49:37.278Z,6.78
2023-01-19T17:52:08.054Z,6.85
2023-01-19T17:54:38.483Z,6.87
2023-01-19T17:57:08.947Z,6.85
2023-01-19T17:59:41.162Z,6.80
2023-01-19T18:02:12.604Z,6.81
2023-01-19T18:04:45.634Z,6.87
2023-01-19T18:07:15.737Z,6.89
2023-01-19T18:09:45.746Z,6.85
2023-01-19T18:12:16.149Z,6.86
2023-01-19T18:14:46.209Z,6.64
2023-01-19T18:17:16.402Z,6.96
2023-01-19T18:19:49.270Z,6.81
2023-01-19T18:22:19.656Z,6.72
2023-01-19T18:24:49.777Z,6.68
2023-01-19T18:27:22.021Z,6.80
2023-01-19T18:29:52.093Z,6.87
2023-01-19T18:32:22.150Z,7.01
2023-01-19T18:34:54.803Z,7.08
2023-01-19T18:37:24.819Z,7.18
2023-01-19T18:39:59.856Z,7.23
2023-01-19T18:42:29.973Z,7.02
2023-01-19T18:45:00.701Z,7.33
2023-01-19T18:47:30.822Z,7.39
2023-01-19T18:50:03.518Z,7.21
2023-01-19T18:52:34.075Z,7.20
2023-01-19T18:55:05.023Z,7.23
2023-01-19T18:57:34.829Z,7.20
2023-01-19T19:00:05.740Z,7.08
2023-01-19T19:02:35.915Z,7.06
2023-01-19T19:05:09.644Z,7.06
2023-01-19T19:07:39.794Z,7.04
2023-01-19T19:10:11.611Z,6.97
2023-01-19T19:12:41.879Z,6.90
2023-01-19T19:15:14.090Z,6.94
2023-01-19T19:17:44.199Z,6.91
2023-01-19T19:20:17.499Z,7.02
2023-01-19T19:22:47.621Z,7.02
2023-01-19T19:25:18.041Z,7.02
2023-01-19T19:27:48.401Z,6.92
2023-01-19T19:30:19.903Z,6.85
2023-01-19T19:32:56.494Z,6.79
2023-01-19T19:35:29.669Z,6.74
2023-01-19T19:38:00.213Z,6.63
2023-01-19T19:40:31.090Z,6.69
2023-01-19T19:43:01.056Z,6.54
2023-01-19T19:45:31.051Z,6.37
2023-01-19T19:48:01.152Z,6.22
2023-01-19T19:50:33.958Z,6.27
2023-01-19T19:53:04.023Z,6.16
2023-01-19T19:55:34.387Z,6.20
2023-01-19T19:58:04.556Z,6.25
2023-01-19T20:00:34.680Z,6.35
2023-01-19T20:03:05.124Z,6.26
2023-01-19T20:05:38.764Z,6.25
2023-01-19T20:08:09.040Z,6.12
2023-01-19T20:10:39.369Z,6.14
2023-01-19T20:13:10.478Z,6.01
2023-01-19T20:15:40.810Z,5.99
2023-01-19T20:18:11.204Z,5.97
2023-01-19T20:20:45.223Z,5.96
2023-01-19T20:23:16.500Z,5.95
2023-01-19T20:25:46.704Z,5.88
2023-01-19T20:28:16.927Z,5.90
2023-01-19T20:30:47.113Z,5.81
2023-01-19T20:33:17.443Z,5.98
2023-01-19T20:35:52.153Z,6.03
2023-01-19T20:38:22.297Z,6.10
2023-01-19T20:40:52.455Z,6.06
2023-01-19T20:43:22.615Z,5.84
2023-01-19T20:45:52.871Z,5.80
2023-01-19T20:48:23.236Z,5.70
2023-01-19T20:51:00.917Z,5.63
2023-01-19T20:53:32.345Z,5.63
2023-01-19T20:56:06.234Z,5.86
2023-01-19T20:58:36.617Z,5.92
2023-01-19T21:01:13.914Z,5.87
2023-01-19T21:03:44.263Z,5.73
2023-01-19T21:06:18.261Z,5.79
2023-01-19T21:08:49.921Z,5.86
2023-01-19T21:11:23.967Z,5.72
2023-01-19T21:13:56.339Z,5.91
2023-01-19T21:16:27.883Z,5.96
2023-01-19T21:18:58.645Z,5.93
2023-01-19T21:21:32.064Z,5.82
2023-01-19T21:24:03.989Z,5.95
2023-01-19T21:26:34.394Z,6.03
2023-01-19T21:29:05.842Z,6.00
2023-01-19T21:31:36.011Z,5.95
2023-01-19T21:34:06.115Z,5.72
2023-01-19T21:36:39.314Z,5.91
2023-01-19T21:39:09.521Z,5.77
2023-01-19T21:41:43.038Z,5.61
2023-01-19T21:44:15.312Z,5.52
2023-01-19T21:46:45.620Z,5.43
2023-01-19T21:49:20.950Z,5.28
2023-01-19T21:51:54.302Z,5.12
2023-01-19T21:54:24.328Z,5.36
2023-01-19T21:56:54.469Z,5.43
2023-01-19T21:59:24.669Z,5.39
2023-01-19T22:01:54.938Z,5.35
2023-01-19T22:04:25.170Z,5.38
2023-01-19T22:06:58.018Z,5.35
2023-01-19T22:09:28.237Z,5.31
2023-01-19T22:11:58.554Z,5.17
2023-01-19T22:14:28.739Z,5.11
2023-01-19T22:16:59.372Z,5.21
2023-01-19T22:19:29.623Z,5.12
2023-01-19T22:22:02.289Z,5.13
2023-01-19T22:24:32.319Z,5.03
2023-01-19T22:27:02.358Z,4.84
2023-01-19T22:29:32.572Z,4.76
2023-01-19T22:32:03.112Z,4.88
2023-01-19T22:34:33.504Z,4.90
2023-01-19T22:37:07.013Z,4.90
2023-01-19T22:39:37.624Z,4.84
2023-01-19T22:42:07.715Z,4.89
2023-01-19T22:44:38.490Z,4.83
2023-01-19T22:47:08.974Z,4.88
2023-01-19T22:49:39.368Z,4.74
2023-01-19T22:52:12.648Z,4.74
2023-01-19T22:54:43.314Z,4.75
2023-01-19T22:57:14.119Z,4.70
2023-01-19T22:59:44.121Z,4.72
2023-01-19T23:02:14.222Z,4.83
2023-01-19T23:04:44.379Z,4.87
2023-01-19T23:07:16.987Z,4.87
2023-01-19T23:09:47.818Z,4.75
2023-01-19T23:12:17.902Z,4.81
2023-01-19T23:14:48.158Z,4.83
2023-01-19T23:17:18.238Z,4.94
2023-01-19T23:19:48.742Z,4.99
2023-01-19T23:22:21.566Z,4.79
2023-01-19T23:24:51.569Z,4.73
2023-01-19T23:27:21.861Z,4.54
2023-01-19T23:29:51.994Z,4.52
2023-01-19T23:32:22.367Z,4.51
2023-01-19T23:34:52.451Z,4.45
2023-01-19T23:37:25.981Z,4.31
2023-01-19T23:39:56.072Z,4.06
2023-01-19T23:42:26.247Z,4.13
2023-01-19T23:44:56.249Z,4.15
2023-01-19T23:47:26.361Z,4.16
2023-01-19T23:49:56.497Z,3.90
2023-01-19T23:52:29.218Z,4.14
2023-01-19T23:54:59.228Z,3.74
2023-01-19T23:57:29.693Z,3.84
